sensor_id;sensor_type;location;lat;lon;timestamp;temperature;humidity
19110;DHT22;9687;50.836;12.060;2022-11-04T00:01:45;14.80;77.40
19110;DHT22;9687;50.836;12.060;2022-11-04T00:04:16;14.80;77.20
19110;DHT22;9687;50.836;12.060;2022-11-04T00:06:48;14.80;77.20
19110;DHT22;9687;50.836;12.060;2022-11-04T00:09:19;14.80;77.40
19110;DHT22;9687;50.836;12.060;2022-11-04T00:11:47;14.80;77.70
19110;DHT22;9687;50.836;12.060;2022-11-04T00:14:34;14.70;77.90
19110;DHT22;9687;50.836;12.060;2022-11-04T01:19:39;14.60;79.10
19110;DHT22;9687;50.836;12.060;2022-11-04T01:22:07;14.60;79.40
19110;DHT22;9687;50.836;12.060;2022-11-04T01:24:35;14.60;79.80
19110;DHT22;9687;50.836;12.060;2022-11-04T01:27:03;14.50;80.10
19110;DHT22;9687;50.836;12.060;2022-11-04T01:29:31;14.50;80.20
19110;DHT22;9687;50.836;12.060;2022-11-04T01:31:59;14.50;80.20
19110;DHT22;9687;50.836;12.060;2022-11-04T01:34:27;14.50;80.80
19110;DHT22;9687;50.836;12.060;2022-11-04T01:36:57;14.50;80.90
19110;DHT22;9687;50.836;12.060;2022-11-04T01:39:26;14.50;80.90
19110;DHT22;9687;50.836;12.060;2022-11-04T01:41:54;14.40;81.20
19110;DHT22;9687;50.836;12.060;2022-11-04T01:44:58;14.40;81.40
19110;DHT22;9687;50.836;12.060;2022-11-04T01:47:31;14.40;81.60
19110;DHT22;9687;50.836;12.060;2022-11-04T01:50:06;14.30;81.60
19110;DHT22;9687;50.836;12.060;2022-11-04T01:52:43;14.30;81.80
19110;DHT22;9687;50.836;12.060;2022-11-04T01:55:14;14.30;82.00
19110;DHT22;9687;50.836;12.060;2022-11-04T01:57:46;14.30;82.30
19110;DHT22;9687;50.836;12.060;2022-11-04T02:00:16;14.30;82.50
19110;DHT22;9687;50.836;12.060;2022-11-04T02:02:52;14.30;82.70
19110;DHT22;9687;50.836;12.060;2022-11-04T02:05:21;14.00;82.40
19110;DHT22;9687;50.836;12.060;2022-11-04T02:07:54;14.40;82.90
19110;DHT22;9687;50.836;12.060;2022-11-04T02:10:26;14.30;82.80
19110;DHT22;9687;50.836;12.060;2022-11-04T02:12:55;14.30;82.90
19110;DHT22;9687;50.836;12.060;2022-11-04T02:15:30;14.30;83.00
19110;DHT22;9687;50.836;12.060;2022-11-04T02:18:29;14.40;83.10
19110;DHT22;9687;50.836;12.060;2022-11-04T05:21:44;14.40;91.10
19110;DHT22;9687;50.836;12.060;2022-11-04T05:24:12;14.40;91.10
19110;DHT22;9687;50.836;12.060;2022-11-04T05:26:40;14.40;91.20
19110;DHT22;9687;50.836;12.060;2022-11-04T05:29:08;14.40;91.10
19110;DHT22;9687;50.836;12.060;2022-11-04T05:31:35;14.40;91.10
19110;DHT22;9687;50.836;12.060;2022-11-04T05:34:03;14.50;91.10
19110;DHT22;9687;50.836;12.060;2022-11-04T05:36:31;14.50;91.20
19110;DHT22;9687;50.836;12.060;2022-11-04T05:39:00;14.50;91.20
19110;DHT22;9687;50.836;12.060;2022-11-04T05:41:28;14.50;91.20
19110;DHT22;9687;50.836;12.060;2022-11-04T05:43:57;14.50;91.10
19110;DHT22;9687;50.836;12.060;2022-11-04T05:46:26;14.50;91.50
19110;DHT22;9687;50.836;12.060;2022-11-04T05:48:54;14.50;91.20
19110;DHT22;9687;50.836;12.060;2022-11-04T05:51:23;14.50;91.30
19110;DHT22;9687;50.836;12.060;2022-11-04T05:53:51;14.50;91.30
19110;DHT22;9687;50.836;12.060;2022-11-04T05:56:20;14.50;91.30
19110;DHT22;9687;50.836;12.060;2022-11-04T05:58:48;14.50;91.30
19110;DHT22;9687;50.836;12.060;2022-11-04T06:01:31;14.50;91.70
19110;DHT22;9687;50.836;12.060;2022-11-04T06:04:00;14.50;91.30
19110;DHT22;9687;50.836;12.060;2022-11-04T06:06:30;14.50;91.30
19110;DHT22;9687;50.836;12.060;2022-11-04T06:08:59;14.50;91.30
19110;DHT22;9687;50.836;12.060;2022-11-04T06:11:29;14.60;91.40
19110;DHT22;9687;50.836;12.060;2022-11-04T06:13:58;14.60;91.40
19110;DHT22;9687;50.836;12.060;2022-11-04T06:16:26;14.50;91.40
19110;DHT22;9687;50.836;12.060;2022-11-04T06:18:54;14.60;91.50
19110;DHT22;9687;50.836;12.060;2022-11-04T06:21:24;14.60;91.40
19110;DHT22;9687;50.836;12.060;2022-11-04T07:22:38;14.50;92.30
19110;DHT22;9687;50.836;12.060;2022-11-04T07:25:12;14.50;92.40
19110;DHT22;9687;50.836;12.060;2022-11-04T07:27:39;14.50;92.40
19110;DHT22;9687;50.836;12.060;2022-11-04T07:30:09;14.50;92.40
19110;DHT22;9687;50.836;12.060;2022-11-04T07:32:38;14.50;92.40
19110;DHT22;9687;50.836;12.060;2022-11-04T07:35:06;14.50;92.40
19110;DHT22;9687;50.836;12.060;2022-11-04T07:37:37;14.60;92.40
19110;DHT22;9687;50.836;12.060;2022-11-04T07:40:06;14.60;92.40
19110;DHT22;9687;50.836;12.060;2022-11-04T07:42:34;14.60;92.40
19110;DHT22;9687;50.836;12.060;2022-11-04T07:45:02;14.60;92.40
19110;DHT22;9687;50.836;12.060;2022-11-04T07:47:34;14.60;92.40
19110;DHT22;9687;50.836;12.060;2022-11-04T07:50:02;14.60;92.40
19110;DHT22;9687;50.836;12.060;2022-11-04T07:52:30;14.60;92.30
19110;DHT22;9687;50.836;12.060;2022-11-04T07:54:59;14.60;92.20
19110;DHT22;9687;50.836;12.060;2022-11-04T07:57:28;14.60;92.20
19110;DHT22;9687;50.836;12.060;2022-11-04T07:59:55;14.60;92.10
19110;DHT22;9687;50.836;12.060;2022-11-04T08:02:23;14.70;92.00
19110;DHT22;9687;50.836;12.060;2022-11-04T08:04:55;14.70;91.80
19110;DHT22;9687;50.836;12.060;2022-11-04T08:07:23;14.60;91.50
19110;DHT22;9687;50.836;12.060;2022-11-04T08:09:53;14.70;91.40
19110;DHT22;9687;50.836;12.060;2022-11-04T08:12:23;14.60;91.10
19110;DHT22;9687;50.836;12.060;2022-11-04T08:14:54;14.60;90.50
19110;DHT22;9687;50.836;12.060;2022-11-04T08:17:25;14.60;90.40
19110;DHT22;9687;50.836;12.060;2022-11-04T08:19:57;14.60;90.20
19110;DHT22;9687;50.836;12.060;2022-11-04T09:24:22;14.90;85.40
19110;DHT22;9687;50.836;12.060;2022-11-04T09:26:50;14.90;85.30
19110;DHT22;9687;50.836;12.060;2022-11-04T09:29:17;14.90;85.20
19110;DHT22;9687;50.836;12.060;2022-11-04T09:31:45;14.90;85.10
19110;DHT22;9687;50.836;12.060;2022-11-04T09:34:16;14.90;84.90
19110;DHT22;9687;50.836;12.060;2022-11-04T09:36:44;14.90;84.90
19110;DHT22;9687;50.836;12.060;2022-11-04T09:39:13;14.90;83.50
19110;DHT22;9687;50.836;12.060;2022-11-04T09:41:54;14.90;83.10
19110;DHT22;9687;50.836;12.060;2022-11-04T09:44:27;14.80;82.50
19110;DHT22;9687;50.836;12.060;2022-11-04T09:47:00;14.90;81.90
19110;DHT22;9687;50.836;12.060;2022-11-04T09:49:34;14.90;81.40
19110;DHT22;9687;50.836;12.060;2022-11-04T09:52:06;14.80;81.00
19110;DHT22;9687;50.836;12.060;2022-11-04T09:54:40;14.80;80.90
19110;DHT22;9687;50.836;12.060;2022-11-04T09:57:15;14.80;80.80
19110;DHT22;9687;50.836;12.060;2022-11-04T09:59:45;14.80;81.00
19110;DHT22;9687;50.836;12.060;2022-11-04T10:05:21;14.80;81.00
19110;DHT22;9687;50.836;12.060;2022-11-04T10:08:07;14.80;81.00
19110;DHT22;9687;50.836;12.060;2022-11-04T10:10:50;14.80;81.30
19110;DHT22;9687;50.836;12.060;2022-11-04T10:13:34;14.80;81.00
19110;DHT22;9687;50.836;12.060;2022-11-04T10:16:24;14.80;81.00
19110;DHT22;9687;50.836;12.060;2022-11-04T10:19:07;14.80;80.60
19110;DHT22;9687;50.836;12.060;2022-11-04T10:21:46;14.80;80.50
19110;DHT22;9687;50.836;12.060;2022-11-04T11:24:24;14.70;79.70
19110;DHT22;9687;50.836;12.060;2022-11-04T11:26:57;14.70;79.60
19110;DHT22;9687;50.836;12.060;2022-11-04T11:29:33;14.80;79.40
19110;DHT22;9687;50.836;12.060;2022-11-04T11:32:20;14.80;79.30
19110;DHT22;9687;50.836;12.060;2022-11-04T11:34:56;14.90;79.20
19110;DHT22;9687;50.836;12.060;2022-11-04T11:37:30;14.90;79.00
19110;DHT22;9687;50.836;12.060;2022-11-04T11:40:03;14.90;79.00
19110;DHT22;9687;50.836;12.060;2022-11-04T11:42:40;15.00;79.00
19110;DHT22;9687;50.836;12.060;2022-11-04T11:45:15;15.00;78.80
19110;DHT22;9687;50.836;12.060;2022-11-04T11:47:45;15.00;78.90
19110;DHT22;9687;50.836;12.060;2022-11-04T11:50:24;15.00;78.70
19110;DHT22;9687;50.836;12.060;2022-11-04T11:53:14;15.00;78.70
19110;DHT22;9687;50.836;12.060;2022-11-04T11:55:55;14.90;78.40
19110;DHT22;9687;50.836;12.060;2022-11-04T11:58:34;15.00;78.20
19110;DHT22;9687;50.836;12.060;2022-11-04T12:01:12;14.90;78.10
19110;DHT22;9687;50.836;12.060;2022-11-04T12:03:46;15.00;78.10
19110;DHT22;9687;50.836;12.060;2022-11-04T12:06:27;14.90;77.80
19110;DHT22;9687;50.836;12.060;2022-11-04T12:09:15;15.00;77.70
19110;DHT22;9687;50.836;12.060;2022-11-04T12:12:17;15.00;77.50
19110;DHT22;9687;50.836;12.060;2022-11-04T12:14:56;15.00;77.10
19110;DHT22;9687;50.836;12.060;2022-11-04T12:17:41;15.10;77.00
19110;DHT22;9687;50.836;12.060;2022-11-04T12:20:28;15.10;76.70
19110;DHT22;9687;50.836;12.060;2022-11-04T12:23:06;15.10;76.40
19110;DHT22;9687;50.836;12.060;2022-11-04T13:25:05;15.20;73.20
19110;DHT22;9687;50.836;12.060;2022-11-04T13:27:40;15.20;73.20
19110;DHT22;9687;50.836;12.060;2022-11-04T13:30:19;15.20;73.30
19110;DHT22;9687;50.836;12.060;2022-11-04T13:32:54;15.20;73.40
19110;DHT22;9687;50.836;12.060;2022-11-04T13:35:32;15.20;73.40
19110;DHT22;9687;50.836;12.060;2022-11-04T13:38:08;15.20;73.20
19110;DHT22;9687;50.836;12.060;2022-11-04T13:40:50;15.30;73.30
19110;DHT22;9687;50.836;12.060;2022-11-04T13:43:32;15.30;73.30
19110;DHT22;9687;50.836;12.060;2022-11-04T13:46:22;15.30;73.20
19110;DHT22;9687;50.836;12.060;2022-11-04T13:49:03;15.30;73.20
19110;DHT22;9687;50.836;12.060;2022-11-04T13:51:39;15.30;73.10
19110;DHT22;9687;50.836;12.060;2022-11-04T13:54:28;15.30;73.10
19110;DHT22;9687;50.836;12.060;2022-11-04T13:57:06;15.30;72.90
19110;DHT22;9687;50.836;12.060;2022-11-04T13:59:40;15.30;72.60
19110;DHT22;9687;50.836;12.060;2022-11-04T14:02:35;15.30;72.30
19110;DHT22;9687;50.836;12.060;2022-11-04T14:08:19;15.20;72.30
19110;DHT22;9687;50.836;12.060;2022-11-04T14:11:14;15.20;72.50
19110;DHT22;9687;50.836;12.060;2022-11-04T14:16:53;15.10;72.30
19110;DHT22;9687;50.836;12.060;2022-11-04T14:19:56;15.10;72.40
19110;DHT22;9687;50.836;12.060;2022-11-04T14:22:33;15.10;72.70
19110;DHT22;9687;50.836;12.060;2022-11-04T16:57:42;14.00;78.40
19110;DHT22;9687;50.836;12.060;2022-11-04T17:00:19;14.00;78.50
19110;DHT22;9687;50.836;12.060;2022-11-04T17:02:48;14.00;78.60
19110;DHT22;9687;50.836;12.060;2022-11-04T17:05:17;14.00;78.60
19110;DHT22;9687;50.836;12.060;2022-11-04T17:07:45;13.90;78.60
19110;DHT22;9687;50.836;12.060;2022-11-04T17:10:16;13.90;78.70
19110;DHT22;9687;50.836;12.060;2022-11-04T17:12:45;13.90;78.90
19110;DHT22;9687;50.836;12.060;2022-11-04T17:15:14;13.80;79.00
19110;DHT22;9687;50.836;12.060;2022-11-04T17:17:43;13.90;79.30
19110;DHT22;9687;50.836;12.060;2022-11-04T17:20:13;13.80;79.30
19110;DHT22;9687;50.836;12.060;2022-11-04T17:22:42;13.80;79.50
19110;DHT22;9687;50.836;12.060;2022-11-04T17:25:15;13.80;79.50
19110;DHT22;9687;50.836;12.060;2022-11-04T17:27:45;13.80;79.50
19110;DHT22;9687;50.836;12.060;2022-11-04T17:30:14;13.80;79.50
19110;DHT22;9687;50.836;12.060;2022-11-04T17:32:43;13.80;79.50
19110;DHT22;9687;50.836;12.060;2022-11-04T17:35:12;13.80;79.60
19110;DHT22;9687;50.836;12.060;2022-11-04T17:37:39;13.80;79.70
19110;DHT22;9687;50.836;12.060;2022-11-04T17:40:13;13.80;79.80
19110;DHT22;9687;50.836;12.060;2022-11-04T17:42:41;13.80;79.90
19110;DHT22;9687;50.836;12.060;2022-11-04T17:45:29;13.80;79.90
19110;DHT22;9687;50.836;12.060;2022-11-04T17:47:57;13.70;79.80
19110;DHT22;9687;50.836;12.060;2022-11-04T17:50:28;13.50;79.60
19110;DHT22;9687;50.836;12.060;2022-11-04T17:52:58;13.70;79.80
19110;DHT22;9687;50.836;12.060;2022-11-04T17:55:28;13.60;79.80
19110;DHT22;9687;50.836;12.060;2022-11-04T21:30:27;13.40;81.40
19110;DHT22;9687;50.836;12.060;2022-11-04T21:33:00;13.40;81.50
19110;DHT22;9687;50.836;12.060;2022-11-04T21:35:33;13.40;81.70
19110;DHT22;9687;50.836;12.060;2022-11-04T21:38:02;13.40;81.60
19110;DHT22;9687;50.836;12.060;2022-11-04T21:40:30;13.40;81.60
19110;DHT22;9687;50.836;12.060;2022-11-04T21:42:58;13.40;81.60
19110;DHT22;9687;50.836;12.060;2022-11-04T21:45:28;13.40;81.60
19110;DHT22;9687;50.836;12.060;2022-11-04T21:47:55;13.40;81.60
19110;DHT22;9687;50.836;12.060;2022-11-04T21:50:23;13.40;81.60
19110;DHT22;9687;50.836;12.060;2022-11-04T21:52:50;13.40;81.60
19110;DHT22;9687;50.836;12.060;2022-11-04T21:55:18;13.40;81.60
19110;DHT22;9687;50.836;12.060;2022-11-04T21:57:45;13.50;81.70
19110;DHT22;9687;50.836;12.060;2022-11-04T22:00:14;13.50;81.70
19110;DHT22;9687;50.836;12.060;2022-11-04T22:02:43;13.50;81.70
19110;DHT22;9687;50.836;12.060;2022-11-04T22:05:12;13.50;81.60
19110;DHT22;9687;50.836;12.060;2022-11-04T22:07:40;13.50;82.30
19110;DHT22;9687;50.836;12.060;2022-11-04T22:10:26;13.50;81.40
19110;DHT22;9687;50.836;12.060;2022-11-04T22:12:54;13.40;81.30
19110;DHT22;9687;50.836;12.060;2022-11-04T22:15:22;13.40;81.40
19110;DHT22;9687;50.836;12.060;2022-11-04T22:18:09;13.40;81.60
19110;DHT22;9687;50.836;12.060;2022-11-04T22:20:37;13.40;81.70
19110;DHT22;9687;50.836;12.060;2022-11-04T22:23:05;13.40;81.80
19110;DHT22;9687;50.836;12.060;2022-11-04T22:25:33;13.40;81.80
19110;DHT22;9687;50.836;12.060;2022-11-04T22:28:00;13.40;81.90
